ASA307 KPHX-KSAN
Flight info
| Callsign | ASA307 |
|---|---|
| Flight time | 0h 47m |
| Altitude | 32000 |
| Route | FYRBD1 MOHAK J2 HOGGZ LUCKI1 |
| Aircraft | B739/M-SDE2E3FGHIRWXY/LB1 |
Departure
| Time | 2026-05-07 00:06 |
|---|---|
| Airport | Phoenix Sky Harbor International Airport (KPHX) |
Arrival
| Time | 2026-05-07 00:53 |
|---|---|
| Airport | San Diego International Airport (KSAN) |
| Time | Latitude | Longitude | Altitude | Speed | Heading |
|---|---|---|---|---|---|
| 2026-05-06 23:46 | 33.43384 | -112.01090 | 1133 ft | 0 kts | 345° |
| 2026-05-06 23:58 | 33.43376 | -112.01087 | 1149 ft | 3 kts | 345° |
| 2026-05-06 23:58 | 33.43357 | -112.01081 | 1126 ft | 3 kts | 345° |
| 2026-05-06 23:58 | 33.43339 | -112.01075 | 1132 ft | 3 kts | 345° |
| 2026-05-06 23:58 | 33.43322 | -112.01069 | 1131 ft | 3 kts | 345° |
| 2026-05-06 23:59 | 33.43304 | -112.01063 | 1133 ft | 3 kts | 345° |
| 2026-05-06 23:59 | 33.43302 | -112.01063 | 1134 ft | 0 kts | 345° |
| 2026-05-07 00:01 | 33.43306 | -112.01061 | 1133 ft | 3 kts | 11° |
| 2026-05-07 00:02 | 33.43316 | -112.01013 | 1129 ft | 11 kts | 116° |
| 2026-05-07 00:02 | 33.43289 | -112.00869 | 1134 ft | 23 kts | 93° |
| 2026-05-07 00:02 | 33.43286 | -112.00659 | 1132 ft | 24 kts | 89° |
| 2026-05-07 00:02 | 33.43277 | -112.00495 | 1132 ft | 20 kts | 125° |
| 2026-05-07 00:03 | 33.43216 | -112.00317 | 1135 ft | 28 kts | 91° |
| 2026-05-07 00:03 | 33.43217 | -112.00071 | 1135 ft | 31 kts | 89° |
| 2026-05-07 00:03 | 33.43217 | -111.99845 | 1135 ft | 24 kts | 90° |
| 2026-05-07 00:03 | 33.43216 | -111.99651 | 1135 ft | 23 kts | 90° |
| 2026-05-07 00:04 | 33.43204 | -111.99535 | 1133 ft | 0 kts | 128° |
| 2026-05-07 00:04 | 33.43202 | -111.99532 | 1135 ft | 3 kts | 130° |
| 2026-05-07 00:05 | 33.43162 | -111.99491 | 1132 ft | 11 kts | 153° |
| 2026-05-07 00:05 | 33.43096 | -111.99527 | 1135 ft | 13 kts | 270° |
| 2026-05-07 00:05 | 33.43097 | -111.99585 | 1134 ft | 1 kts | 269° |
| 2026-05-07 00:05 | 33.43097 | -111.99599 | 1134 ft | 13 kts | 270° |
| 2026-05-07 00:06 | 33.43104 | -112.00084 | 1133 ft | 101 kts | 269° |
| 2026-05-07 00:06 | 33.43110 | -112.01224 | 1158 ft | 167 kts | 271° |
| 2026-05-07 00:06 | 33.43115 | -112.02697 | 1798 ft | 184 kts | 269° |
| 2026-05-07 00:06 | 33.43116 | -112.04308 | 2601 ft | 198 kts | 271° |
| 2026-05-07 00:07 | 33.43151 | -112.05963 | 3495 ft | 200 kts | 271° |
| 2026-05-07 00:07 | 33.43001 | -112.07654 | 4175 ft | 212 kts | 256° |
| 2026-05-07 00:07 | 33.42416 | -112.09407 | 4531 ft | 238 kts | 248° |
| 2026-05-07 00:07 | 33.41753 | -112.11273 | 5260 ft | 246 kts | 249° |
| 2026-05-07 00:08 | 33.41144 | -112.13178 | 6025 ft | 252 kts | 251° |
| 2026-05-07 00:08 | 33.40342 | -112.15141 | 6593 ft | 273 kts | 232° |
| 2026-05-07 00:08 | 33.38826 | -112.16581 | 7092 ft | 293 kts | 209° |
| 2026-05-07 00:08 | 33.36953 | -112.17550 | 8078 ft | 292 kts | 198° |
| 2026-05-07 00:09 | 33.34920 | -112.17752 | 8777 ft | 300 kts | 166° |
| 2026-05-07 00:09 | 33.32918 | -112.17016 | 9548 ft | 305 kts | 158° |
| 2026-05-07 00:09 | 33.30898 | -112.16219 | 9911 ft | 307 kts | 159° |
| 2026-05-07 00:09 | 33.28841 | -112.15450 | 9982 ft | 310 kts | 161° |
| 2026-05-07 00:10 | 33.26695 | -112.15282 | 9999 ft | 315 kts | 191° |
| 2026-05-07 00:10 | 33.24715 | -112.16368 | 10005 ft | 317 kts | 219° |
| 2026-05-07 00:10 | 33.23318 | -112.18340 | 10006 ft | 315 kts | 245° |
| 2026-05-07 00:10 | 33.22679 | -112.20809 | 9998 ft | 310 kts | 270° |
| 2026-05-07 00:11 | 33.22787 | -112.23346 | 10016 ft | 308 kts | 273° |
| 2026-05-07 00:11 | 33.22382 | -112.25868 | 10029 ft | 315 kts | 249° |
| 2026-05-07 00:11 | 33.21178 | -112.28129 | 10177 ft | 335 kts | 233° |
| 2026-05-07 00:11 | 33.19699 | -112.30387 | 10608 ft | 352 kts | 233° |
| 2026-05-07 00:12 | 33.18178 | -112.32694 | 11423 ft | 355 kts | 233° |
| 2026-05-07 00:12 | 33.16649 | -112.35023 | 12314 ft | 356 kts | 232° |
| 2026-05-07 00:12 | 33.15138 | -112.37346 | 13276 ft | 355 kts | 232° |
| 2026-05-07 00:12 | 33.13609 | -112.39697 | 14047 ft | 360 kts | 232° |
| 2026-05-07 00:13 | 33.12064 | -112.42076 | 14739 ft | 365 kts | 232° |
| 2026-05-07 00:13 | 33.10497 | -112.44495 | 15468 ft | 369 kts | 232° |
| 2026-05-07 00:13 | 33.08923 | -112.46925 | 16195 ft | 374 kts | 232° |
| 2026-05-07 00:13 | 33.07318 | -112.49403 | 16835 ft | 380 kts | 232° |
| 2026-05-07 00:14 | 33.05713 | -112.51881 | 17522 ft | 384 kts | 232° |
| 2026-05-07 00:14 | 33.04052 | -112.54444 | 18284 ft | 387 kts | 231° |
| 2026-05-07 00:14 | 33.02396 | -112.56999 | 18876 ft | 391 kts | 231° |
| 2026-05-07 00:14 | 33.00746 | -112.59544 | 19451 ft | 396 kts | 231° |
| 2026-05-07 00:15 | 32.99047 | -112.62161 | 20044 ft | 401 kts | 231° |
| 2026-05-07 00:15 | 32.97335 | -112.64794 | 20637 ft | 405 kts | 231° |
| 2026-05-07 00:15 | 32.95798 | -112.67632 | 21192 ft | 411 kts | 247° |
| 2026-05-07 00:15 | 32.95053 | -112.70914 | 21780 ft | 413 kts | 262° |
| 2026-05-07 00:16 | 32.94602 | -112.74305 | 22393 ft | 417 kts | 262° |
| 2026-05-07 00:16 | 32.94171 | -112.77742 | 22945 ft | 422 kts | 263° |
| 2026-05-07 00:16 | 32.93737 | -112.81219 | 23430 ft | 429 kts | 263° |
| 2026-05-07 00:16 | 32.93287 | -112.84750 | 23881 ft | 434 kts | 263° |
| 2026-05-07 00:17 | 32.92821 | -112.88311 | 24443 ft | 435 kts | 262° |
| 2026-05-07 00:17 | 32.92353 | -112.91819 | 25007 ft | 436 kts | 262° |
| 2026-05-07 00:17 | 32.91871 | -112.95389 | 25626 ft | 435 kts | 262° |
| 2026-05-07 00:17 | 32.91382 | -112.98977 | 26333 ft | 433 kts | 262° |
| 2026-05-07 00:18 | 32.90905 | -113.02457 | 27042 ft | 430 kts | 262° |
| 2026-05-07 00:18 | 32.90425 | -113.05962 | 27706 ft | 428 kts | 262° |
| 2026-05-07 00:18 | 32.89945 | -113.09457 | 28349 ft | 428 kts | 262° |
| 2026-05-07 00:18 | 32.89465 | -113.12953 | 28952 ft | 428 kts | 263° |
| 2026-05-07 00:19 | 32.88983 | -113.16454 | 29495 ft | 429 kts | 263° |
| 2026-05-07 00:19 | 32.88500 | -113.19955 | 30005 ft | 431 kts | 263° |
| 2026-05-07 00:19 | 32.87520 | -113.27045 | 29949 ft | 432 kts | 263° |
| 2026-05-07 00:20 | 32.86535 | -113.34128 | 29969 ft | 442 kts | 263° |
| 2026-05-07 00:20 | 32.85511 | -113.41487 | 29961 ft | 460 kts | 263° |
| 2026-05-07 00:21 | 32.84438 | -113.49135 | 29956 ft | 476 kts | 263° |
| 2026-05-07 00:21 | 32.83326 | -113.57026 | 29972 ft | 490 kts | 263° |
| 2026-05-07 00:22 | 32.82187 | -113.65065 | 29961 ft | 498 kts | 263° |
| 2026-05-07 00:22 | 32.81032 | -113.73181 | 29954 ft | 496 kts | 263° |
| 2026-05-07 00:23 | 32.79882 | -113.81265 | 29951 ft | 495 kts | 263° |
| 2026-05-07 00:23 | 32.78729 | -113.89337 | 29943 ft | 495 kts | 263° |
| 2026-05-07 00:24 | 32.77602 | -113.97417 | 29942 ft | 495 kts | 266° |
| 2026-05-07 00:24 | 32.77457 | -114.05541 | 29936 ft | 491 kts | 274° |
| 2026-05-07 00:25 | 32.77455 | -114.13640 | 29920 ft | 494 kts | 272° |
| 2026-05-07 00:25 | 32.77323 | -114.21815 | 29930 ft | 496 kts | 272° |
| 2026-05-07 00:26 | 32.77173 | -114.30014 | 29920 ft | 497 kts | 272° |
| 2026-05-07 00:26 | 32.77033 | -114.38217 | 29926 ft | 498 kts | 272° |
| 2026-05-07 00:27 | 32.76897 | -114.46423 | 29950 ft | 499 kts | 272° |
| 2026-05-07 00:27 | 32.76757 | -114.54658 | 29964 ft | 499 kts | 272° |
| 2026-05-07 00:28 | 32.76611 | -114.62905 | 29964 ft | 499 kts | 272° |
| 2026-05-07 00:28 | 32.76459 | -114.71173 | 29966 ft | 500 kts | 272° |
| 2026-05-07 00:29 | 32.76302 | -114.79410 | 29953 ft | 495 kts | 272° |
| 2026-05-07 00:30 | 32.76056 | -114.91004 | 29954 ft | 442 kts | 273° |
| 2026-05-07 00:30 | 32.75980 | -114.94623 | 29673 ft | 433 kts | 273° |
| 2026-05-07 00:30 | 32.75909 | -114.98114 | 29355 ft | 425 kts | 273° |
| 2026-05-07 00:30 | 32.75861 | -115.00478 | 29058 ft | 423 kts | 273° |
| 2026-05-07 00:31 | 32.75707 | -115.07953 | 28136 ft | 415 kts | 273° |
| 2026-05-07 00:31 | 32.75635 | -115.11369 | 27718 ft | 411 kts | 273° |
| 2026-05-07 00:31 | 32.75562 | -115.14746 | 27302 ft | 408 kts | 273° |
| 2026-05-07 00:32 | 32.75488 | -115.18096 | 26890 ft | 405 kts | 273° |
| 2026-05-07 00:32 | 32.75413 | -115.21428 | 26483 ft | 402 kts | 273° |
| 2026-05-07 00:32 | 32.75337 | -115.24751 | 26079 ft | 400 kts | 273° |
| 2026-05-07 00:32 | 32.75261 | -115.28040 | 25669 ft | 398 kts | 273° |
| 2026-05-07 00:33 | 32.75185 | -115.31315 | 25274 ft | 395 kts | 273° |
| 2026-05-07 00:33 | 32.75108 | -115.34576 | 24846 ft | 393 kts | 273° |
| 2026-05-07 00:33 | 32.75031 | -115.37807 | 24462 ft | 392 kts | 273° |
| 2026-05-07 00:33 | 32.74953 | -115.41043 | 24055 ft | 390 kts | 273° |
| 2026-05-07 00:34 | 32.74875 | -115.44264 | 23656 ft | 389 kts | 272° |
| 2026-05-07 00:34 | 32.74796 | -115.47466 | 23202 ft | 388 kts | 272° |
| 2026-05-07 00:34 | 32.74717 | -115.50654 | 22804 ft | 384 kts | 272° |
| 2026-05-07 00:34 | 32.74638 | -115.53759 | 22383 ft | 382 kts | 272° |
| 2026-05-07 00:35 | 32.74557 | -115.56922 | 21978 ft | 379 kts | 272° |
| 2026-05-07 00:35 | 32.74477 | -115.60034 | 21587 ft | 376 kts | 272° |
| 2026-05-07 00:35 | 32.74396 | -115.63143 | 21216 ft | 373 kts | 272° |
| 2026-05-07 00:35 | 32.74316 | -115.66216 | 20823 ft | 370 kts | 272° |
| 2026-05-07 00:36 | 32.74236 | -115.69254 | 20452 ft | 367 kts | 272° |
| 2026-05-07 00:36 | 32.74155 | -115.72289 | 20081 ft | 364 kts | 272° |
| 2026-05-07 00:36 | 32.74074 | -115.75287 | 19719 ft | 362 kts | 272° |
| 2026-05-07 00:36 | 32.73994 | -115.78264 | 19347 ft | 360 kts | 272° |
| 2026-05-07 00:37 | 32.73913 | -115.81235 | 18976 ft | 358 kts | 271° |
| 2026-05-07 00:37 | 32.73833 | -115.84133 | 18620 ft | 356 kts | 271° |
| 2026-05-07 00:37 | 32.73752 | -115.87057 | 18266 ft | 354 kts | 271° |
| 2026-05-07 00:37 | 32.73670 | -115.89982 | 17834 ft | 352 kts | 271° |
| 2026-05-07 00:38 | 32.73588 | -115.92890 | 17438 ft | 350 kts | 271° |
| 2026-05-07 00:38 | 32.73506 | -115.95756 | 17059 ft | 347 kts | 271° |
| 2026-05-07 00:38 | 32.73423 | -115.98619 | 16691 ft | 345 kts | 271° |
| 2026-05-07 00:38 | 32.73341 | -116.01462 | 16335 ft | 343 kts | 271° |
| 2026-05-07 00:39 | 32.73259 | -116.04280 | 15973 ft | 341 kts | 271° |
| 2026-05-07 00:39 | 32.73176 | -116.07081 | 15624 ft | 339 kts | 271° |
| 2026-05-07 00:39 | 32.73094 | -116.09867 | 15260 ft | 337 kts | 271° |
| 2026-05-07 00:39 | 32.73012 | -116.12629 | 14904 ft | 335 kts | 271° |
| 2026-05-07 00:40 | 32.72929 | -116.15387 | 14565 ft | 334 kts | 271° |
| 2026-05-07 00:40 | 32.72846 | -116.18114 | 14201 ft | 333 kts | 271° |
| 2026-05-07 00:40 | 32.72763 | -116.20888 | 13848 ft | 331 kts | 271° |
| 2026-05-07 00:40 | 32.72680 | -116.23582 | 13448 ft | 330 kts | 271° |
| 2026-05-07 00:41 | 32.72596 | -116.26300 | 13094 ft | 328 kts | 271° |
| 2026-05-07 00:41 | 32.72510 | -116.29002 | 12706 ft | 326 kts | 271° |
| 2026-05-07 00:41 | 32.72425 | -116.31684 | 12350 ft | 324 kts | 272° |
| 2026-05-07 00:41 | 32.72341 | -116.34359 | 12003 ft | 322 kts | 271° |
| 2026-05-07 00:42 | 32.72257 | -116.36999 | 11651 ft | 320 kts | 271° |
| 2026-05-07 00:42 | 32.72173 | -116.39629 | 11319 ft | 318 kts | 271° |
| 2026-05-07 00:42 | 32.72089 | -116.42239 | 10973 ft | 316 kts | 271° |
| 2026-05-07 00:42 | 32.72005 | -116.44840 | 10638 ft | 314 kts | 271° |
| 2026-05-07 00:43 | 32.71922 | -116.47430 | 10287 ft | 312 kts | 271° |
| 2026-05-07 00:43 | 32.71837 | -116.49983 | 10096 ft | 304 kts | 271° |
| 2026-05-07 00:43 | 32.71753 | -116.52456 | 9996 ft | 294 kts | 272° |
| 2026-05-07 00:43 | 32.71672 | -116.54903 | 9507 ft | 298 kts | 271° |
| 2026-05-07 00:44 | 32.71592 | -116.57350 | 9160 ft | 297 kts | 271° |
| 2026-05-07 00:44 | 32.71510 | -116.59794 | 8825 ft | 297 kts | 270° |
| 2026-05-07 00:44 | 32.71429 | -116.62219 | 8493 ft | 296 kts | 270° |
| 2026-05-07 00:44 | 32.71346 | -116.64658 | 8167 ft | 295 kts | 270° |
| 2026-05-07 00:45 | 32.71261 | -116.67119 | 7844 ft | 293 kts | 270° |
| 2026-05-07 00:45 | 32.71180 | -116.69486 | 7543 ft | 291 kts | 270° |
| 2026-05-07 00:45 | 32.71097 | -116.71877 | 7222 ft | 289 kts | 270° |
| 2026-05-07 00:45 | 32.71015 | -116.74261 | 6914 ft | 287 kts | 270° |
| 2026-05-07 00:46 | 32.70932 | -116.76639 | 6597 ft | 287 kts | 270° |
| 2026-05-07 00:46 | 32.70849 | -116.79004 | 6264 ft | 287 kts | 269° |
| 2026-05-07 00:46 | 32.70759 | -116.81341 | 6117 ft | 279 kts | 268° |
| 2026-05-07 00:46 | 32.70368 | -116.83360 | 5794 ft | 282 kts | 250° |
| 2026-05-07 00:47 | 32.69661 | -116.85464 | 5673 ft | 270 kts | 250° |
| 2026-05-07 00:47 | 32.69010 | -116.87464 | 5581 ft | 255 kts | 251° |
| 2026-05-07 00:47 | 32.68425 | -116.89318 | 5465 ft | 241 kts | 253° |
| 2026-05-07 00:47 | 32.67882 | -116.91139 | 5356 ft | 228 kts | 252° |
| 2026-05-07 00:48 | 32.67389 | -116.92845 | 5240 ft | 215 kts | 257° |
| 2026-05-07 00:48 | 32.67401 | -116.94540 | 5004 ft | 204 kts | 288° |
| 2026-05-07 00:48 | 32.67803 | -116.96103 | 4746 ft | 194 kts | 288° |
| 2026-05-07 00:48 | 32.68172 | -116.97631 | 4312 ft | 192 kts | 287° |
| 2026-05-07 00:49 | 32.68543 | -116.99164 | 3875 ft | 193 kts | 287° |
| 2026-05-07 00:49 | 32.68908 | -117.00671 | 3616 ft | 181 kts | 287° |
| 2026-05-07 00:49 | 32.69241 | -117.02039 | 3424 ft | 166 kts | 287° |
| 2026-05-07 00:49 | 32.69558 | -117.03343 | 3063 ft | 163 kts | 288° |
| 2026-05-07 00:50 | 32.69869 | -117.04619 | 2770 ft | 155 kts | 288° |
| 2026-05-07 00:50 | 32.70156 | -117.05797 | 2495 ft | 145 kts | 288° |
| 2026-05-07 00:50 | 32.70438 | -117.06945 | 2322 ft | 147 kts | 287° |
| 2026-05-07 00:50 | 32.70719 | -117.08099 | 2157 ft | 141 kts | 287° |
| 2026-05-07 00:51 | 32.70981 | -117.09176 | 2027 ft | 137 kts | 288° |
| 2026-05-07 00:51 | 32.71252 | -117.10275 | 1728 ft | 134 kts | 288° |
| 2026-05-07 00:51 | 32.71509 | -117.11335 | 1497 ft | 133 kts | 288° |
| 2026-05-07 00:51 | 32.71759 | -117.12377 | 1274 ft | 130 kts | 288° |
| 2026-05-07 00:52 | 32.72012 | -117.13413 | 1119 ft | 133 kts | 288° |
| 2026-05-07 00:52 | 32.72274 | -117.14501 | 892 ft | 137 kts | 288° |
| 2026-05-07 00:52 | 32.72540 | -117.15593 | 671 ft | 135 kts | 289° |
| 2026-05-07 00:52 | 32.72798 | -117.16662 | 450 ft | 138 kts | 288° |
| 2026-05-07 00:53 | 32.73058 | -117.17734 | 173 ft | 133 kts | 288° |
| 2026-05-07 00:53 | 32.73302 | -117.18756 | 12 ft | 121 kts | 288° |
| 2026-05-07 00:53 | 32.73506 | -117.19566 | 23 ft | 82 kts | 287° |
| 2026-05-07 00:53 | 32.73626 | -117.20055 | 22 ft | 35 kts | 283° |
| 2026-05-07 00:54 | 32.73608 | -117.20175 | 22 ft | 0 kts | 213° |
| 2026-05-07 00:54 | 32.73607 | -117.20176 | 22 ft | 1 kts | 213° |
| 2026-05-07 00:54 | 32.73583 | -117.20185 | 23 ft | 7 kts | 184° |
| 2026-05-07 00:54 | 32.73539 | -117.20125 | 22 ft | 14 kts | 111° |
| 2026-05-07 00:55 | 32.73499 | -117.19992 | 22 ft | 19 kts | 122° |
| 2026-05-07 00:55 | 32.73389 | -117.19906 | 19 ft | 15 kts | 152° |
| 2026-05-07 00:55 | 32.73373 | -117.19897 | 19 ft | 0 kts | 152° |